sensor_id;sensor_type;location;lat;lon;timestamp;pressure;altitude;pressure_sealevel;temperature;humidity
10470;BME280;5282;47.052;15.458;2023-07-22T00:02:15;97296.16;;;16.40;100.00
10470;BME280;5282;47.052;15.458;2023-07-22T00:04:42;97289.69;;;16.34;100.00
10470;BME280;5282;47.052;15.458;2023-07-22T00:07:09;97302.25;;;16.35;100.00
10470;BME280;5282;47.052;15.458;2023-07-22T00:09:36;97297.03;;;16.33;100.00
10470;BME280;5282;47.052;15.458;2023-07-22T00:12:04;97312.69;;;16.25;100.00
10470;BME280;5282;47.052;15.458;2023-07-22T00:14:38;97316.69;;;16.29;100.00
10470;BME280;5282;47.052;15.458;2023-07-22T00:17:05;97331.06;;;16.23;100.00
10470;BME280;5282;47.052;15.458;2023-07-22T00:19:33;97331.94;;;16.23;100.00
10470;BME280;5282;47.052;15.458;2023-07-22T00:22:00;97335.28;;;16.25;100.00
10470;BME280;5282;47.052;15.458;2023-07-22T00:24:27;97328.16;;;16.24;100.00
10470;BME280;5282;47.052;15.458;2023-07-22T00:26:54;97327.53;;;16.22;100.00
10470;BME280;5282;47.052;15.458;2023-07-22T00:29:23;97329.00;;;16.25;100.00
10470;BME280;5282;47.052;15.458;2023-07-22T00:31:51;97329.44;;;16.22;100.00
10470;BME280;5282;47.052;15.458;2023-07-22T00:34:18;97335.28;;;16.18;100.00
10470;BME280;5282;47.052;15.458;2023-07-22T00:36:45;97334.00;;;16.14;100.00
10470;BME280;5282;47.052;15.458;2023-07-22T00:39:13;97337.13;;;16.11;100.00
10470;BME280;5282;47.052;15.458;2023-07-22T00:41:40;97339.66;;;16.13;100.00
10470;BME280;5282;47.052;15.458;2023-07-22T00:44:09;97339.44;;;16.14;100.00
10470;BME280;5282;47.052;15.458;2023-07-22T00:46:36;97347.38;;;16.09;100.00
10470;BME280;5282;47.052;15.458;2023-07-22T00:49:05;97337.56;;;16.08;100.00
10470;BME280;5282;47.052;15.458;2023-07-22T00:51:32;97332.75;;;16.03;100.00
10470;BME280;5282;47.052;15.458;2023-07-22T00:53:59;97343.00;;;16.01;100.00
10470;BME280;5282;47.052;15.458;2023-07-22T00:56:26;97340.28;;;16.01;100.00
10470;BME280;5282;47.052;15.458;2023-07-22T00:58:53;97340.28;;;16.01;100.00
10470;BME280;5282;47.052;15.458;2023-07-22T01:01:21;97340.25;;;15.95;100.00
10470;BME280;5282;47.052;15.458;2023-07-22T01:03:48;97344.84;;;15.94;100.00
10470;BME280;5282;47.052;15.458;2023-07-22T01:06:17;97354.66;;;15.88;100.00
10470;BME280;5282;47.052;15.458;2023-07-22T01:08:45;97357.94;;;15.84;100.00
10470;BME280;5282;47.052;15.458;2023-07-22T01:11:13;97355.53;;;16.02;100.00
10470;BME280;5282;47.052;15.458;2023-07-22T01:13:40;97352.38;;;15.92;100.00
10470;BME280;5282;47.052;15.458;2023-07-22T01:16:07;97359.47;;;16.00;100.00
10470;BME280;5282;47.052;15.458;2023-07-22T01:18:35;97363.38;;;15.84;100.00
10470;BME280;5282;47.052;15.458;2023-07-22T01:21:02;97374.00;;;15.72;100.00
10470;BME280;5282;47.052;15.458;2023-07-22T01:23:30;97379.03;;;15.68;100.00
10470;BME280;5282;47.052;15.458;2023-07-22T01:25:58;97378.78;;;15.63;100.00
10470;BME280;5282;47.052;15.458;2023-07-22T01:28:25;97371.88;;;15.61;100.00
10470;BME280;5282;47.052;15.458;2023-07-22T01:30:54;97367.47;;;15.53;100.00
10470;BME280;5282;47.052;15.458;2023-07-22T01:33:23;97373.13;;;15.51;100.00
10470;BME280;5282;47.052;15.458;2023-07-22T01:35:50;97374.13;;;15.43;100.00
10470;BME280;5282;47.052;15.458;2023-07-22T01:38:17;97377.28;;;15.54;100.00
10470;BME280;5282;47.052;15.458;2023-07-22T01:40:46;97380.22;;;15.52;100.00
10470;BME280;5282;47.052;15.458;2023-07-22T01:43:13;97388.53;;;15.51;100.00
10470;BME280;5282;47.052;15.458;2023-07-22T01:45:40;97393.78;;;15.52;100.00
10470;BME280;5282;47.052;15.458;2023-07-22T01:48:07;97390.19;;;15.45;100.00
10470;BME280;5282;47.052;15.458;2023-07-22T01:50:34;97397.66;;;15.36;100.00
10470;BME280;5282;47.052;15.458;2023-07-22T01:53:01;97394.34;;;15.34;100.00
10470;BME280;5282;47.052;15.458;2023-07-22T01:55:29;97405.19;;;15.34;100.00
10470;BME280;5282;47.052;15.458;2023-07-22T01:58:00;97401.44;;;15.35;100.00
10470;BME280;5282;47.052;15.458;2023-07-22T02:00:33;97410.22;;;15.44;100.00
10470;BME280;5282;47.052;15.458;2023-07-22T02:03:00;97422.72;;;15.38;100.00
10470;BME280;5282;47.052;15.458;2023-07-22T02:05:28;97423.75;;;15.37;100.00
10470;BME280;5282;47.052;15.458;2023-07-22T02:07:56;97419.13;;;15.31;100.00
10470;BME280;5282;47.052;15.458;2023-07-22T02:10:23;97419.34;;;15.30;100.00
10470;BME280;5282;47.052;15.458;2023-07-22T02:12:50;97427.06;;;15.33;100.00
10470;BME280;5282;47.052;15.458;2023-07-22T02:15:19;97428.09;;;15.32;100.00
10470;BME280;5282;47.052;15.458;2023-07-22T02:17:47;97420.34;;;15.64;100.00
10470;BME280;5282;47.052;15.458;2023-07-22T02:20:15;97418.63;;;15.56;100.00
10470;BME280;5282;47.052;15.458;2023-07-22T02:22:42;97423.63;;;15.52;100.00
10470;BME280;5282;47.052;15.458;2023-07-22T02:25:10;97404.94;;;15.78;100.00
10470;BME280;5282;47.052;15.458;2023-07-22T02:27:37;97417.34;;;15.52;100.00
10470;BME280;5282;47.052;15.458;2023-07-22T02:30:06;97424.38;;;15.39;100.00
10470;BME280;5282;47.052;15.458;2023-07-22T02:32:37;97412.91;;;15.37;100.00
10470;BME280;5282;47.052;15.458;2023-07-22T02:35:05;97415.66;;;15.44;100.00
10470;BME280;5282;47.052;15.458;2023-07-22T02:37:32;97429.59;;;15.34;100.00
10470;BME280;5282;47.052;15.458;2023-07-22T02:40:00;97432.31;;;15.34;100.00
10470;BME280;5282;47.052;15.458;2023-07-22T02:42:27;97431.84;;;15.31;100.00
10470;BME280;5282;47.052;15.458;2023-07-22T02:44:54;97439.75;;;15.25;100.00
10470;BME280;5282;47.052;15.458;2023-07-22T02:47:21;97448.09;;;15.24;100.00
10470;BME280;5282;47.052;15.458;2023-07-22T02:49:49;97448.09;;;15.24;100.00
10470;BME280;5282;47.052;15.458;2023-07-22T02:52:16;97446.59;;;15.21;100.00
10470;BME280;5282;47.052;15.458;2023-07-22T02:55:04;97450.47;;;15.40;100.00
10470;BME280;5282;47.052;15.458;2023-07-22T02:57:31;97455.03;;;15.33;100.00
10470;BME280;5282;47.052;15.458;2023-07-22T02:59:57;97453.13;;;15.27;100.00
10470;BME280;5282;47.052;15.458;2023-07-22T03:02:24;97457.28;;;15.23;100.00
10470;BME280;5282;47.052;15.458;2023-07-22T03:04:52;97454.75;;;15.21;100.00
10470;BME280;5282;47.052;15.458;2023-07-22T03:07:19;97467.66;;;15.19;100.00
10470;BME280;5282;47.052;15.458;2023-07-22T03:09:46;97472.81;;;15.42;100.00
10470;BME280;5282;47.052;15.458;2023-07-22T03:12:13;97463.28;;;15.60;100.00
10470;BME280;5282;47.052;15.458;2023-07-22T03:14:40;97467.41;;;15.42;100.00
10470;BME280;5282;47.052;15.458;2023-07-22T03:17:07;97470.66;;;15.31;100.00
10470;BME280;5282;47.052;15.458;2023-07-22T03:19:34;97471.28;;;15.26;100.00
10470;BME280;5282;47.052;15.458;2023-07-22T03:22:04;97487.38;;;15.35;100.00
10470;BME280;5282;47.052;15.458;2023-07-22T03:24:32;97473.09;;;15.54;100.00
10470;BME280;5282;47.052;15.458;2023-07-22T03:26:59;97484.72;;;15.41;100.00
10470;BME280;5282;47.052;15.458;2023-07-22T03:29:27;97472.13;;;15.34;100.00
10470;BME280;5282;47.052;15.458;2023-07-22T03:31:54;97478.81;;;15.31;100.00
10470;BME280;5282;47.052;15.458;2023-07-22T03:34:25;97480.59;;;15.52;100.00
10470;BME280;5282;47.052;15.458;2023-07-22T03:36:52;97472.03;;;15.55;100.00
10470;BME280;5282;47.052;15.458;2023-07-22T03:39:21;97470.75;;;15.45;100.00
10470;BME280;5282;47.052;15.458;2023-07-22T03:41:48;97472.88;;;15.49;100.00
10470;BME280;5282;47.052;15.458;2023-07-22T03:44:15;97482.38;;;15.38;100.00
10470;BME280;5282;47.052;15.458;2023-07-22T03:46:42;97479.53;;;15.47;100.00
10470;BME280;5282;47.052;15.458;2023-07-22T03:49:12;97475.53;;;15.42;100.00
10470;BME280;5282;47.052;15.458;2023-07-22T03:51:38;97474.63;;;15.64;100.00
10470;BME280;5282;47.052;15.458;2023-07-22T03:54:05;97482.63;;;15.43;100.00
10470;BME280;5282;47.052;15.458;2023-07-22T03:56:34;97479.03;;;15.36;100.00
10470;BME280;5282;47.052;15.458;2023-07-22T03:59:00;97481.53;;;15.31;100.00
10470;BME280;5282;47.052;15.458;2023-07-22T04:01:27;97494.00;;;15.25;100.00
10470;BME280;5282;47.052;15.458;2023-07-22T04:03:54;97494.22;;;15.24;100.00
10470;BME280;5282;47.052;15.458;2023-07-22T04:06:21;97493.75;;;15.20;100.00
10470;BME280;5282;47.052;15.458;2023-07-22T04:08:48;97499.38;;;15.19;100.00
10470;BME280;5282;47.052;15.458;2023-07-22T04:11:15;97496.47;;;15.20;100.00
10470;BME280;5282;47.052;15.458;2023-07-22T04:13:43;97520.63;;;15.15;100.00
10470;BME280;5282;47.052;15.458;2023-07-22T04:16:10;97514.84;;;15.25;100.00
10470;BME280;5282;47.052;15.458;2023-07-22T04:18:36;97504.53;;;15.42;100.00
10470;BME280;5282;47.052;15.458;2023-07-22T04:21:04;97519.88;;;15.28;100.00
10470;BME280;5282;47.052;15.458;2023-07-22T04:23:31;97523.84;;;15.25;100.00
10470;BME280;5282;47.052;15.458;2023-07-22T04:26:02;97522.59;;;15.28;100.00
10470;BME280;5282;47.052;15.458;2023-07-22T04:28:30;97514.66;;;15.26;100.00
10470;BME280;5282;47.052;15.458;2023-07-22T04:30:58;97529.25;;;15.25;100.00
10470;BME280;5282;47.052;15.458;2023-07-22T04:33:26;97527.38;;;15.26;100.00
10470;BME280;5282;47.052;15.458;2023-07-22T04:35:53;97528.22;;;15.26;100.00
10470;BME280;5282;47.052;15.458;2023-07-22T04:38:23;97530.72;;;15.28;100.00
10470;BME280;5282;47.052;15.458;2023-07-22T04:40:50;97533.06;;;15.31;100.00
10470;BME280;5282;47.052;15.458;2023-07-22T04:43:18;97534.75;;;15.32;100.00
10470;BME280;5282;47.052;15.458;2023-07-22T04:45:45;97536.00;;;15.36;100.00
10470;BME280;5282;47.052;15.458;2023-07-22T04:48:15;97535.44;;;15.41;100.00
10470;BME280;5282;47.052;15.458;2023-07-22T04:50:42;97541.06;;;15.46;100.00
10470;BME280;5282;47.052;15.458;2023-07-22T04:53:10;97531.69;;;15.49;100.00
10470;BME280;5282;47.052;15.458;2023-07-22T04:55:39;97534.03;;;15.52;100.00
10470;BME280;5282;47.052;15.458;2023-07-22T04:58:06;97532.97;;;15.53;100.00
10470;BME280;5282;47.052;15.458;2023-07-22T05:00:33;97535.94;;;15.58;100.00
10470;BME280;5282;47.052;15.458;2023-07-22T05:03:01;97533.88;;;15.67;100.00
10470;BME280;5282;47.052;15.458;2023-07-22T05:05:30;97528.50;;;15.73;100.00
10470;BME280;5282;47.052;15.458;2023-07-22T05:07:57;97533.97;;;15.80;100.00
10470;BME280;5282;47.052;15.458;2023-07-22T05:10:24;97539.41;;;15.80;100.00
10470;BME280;5282;47.052;15.458;2023-07-22T05:12:51;97544.91;;;15.87;100.00
10470;BME280;5282;47.052;15.458;2023-07-22T05:15:18;97537.44;;;15.96;100.00
10470;BME280;5282;47.052;15.458;2023-07-22T05:17:44;97541.84;;;16.03;100.00
10470;BME280;5282;47.052;15.458;2023-07-22T05:20:12;97535.84;;;16.15;100.00
10470;BME280;5282;47.052;15.458;2023-07-22T05:22:43;97532.88;;;16.10;100.00
10470;BME280;5282;47.052;15.458;2023-07-22T05:25:10;97543.97;;;16.15;100.00
10470;BME280;5282;47.052;15.458;2023-07-22T05:27:37;97546.09;;;16.19;100.00
10470;BME280;5282;47.052;15.458;2023-07-22T05:30:04;97553.84;;;16.29;100.00
10470;BME280;5282;47.052;15.458;2023-07-22T05:32:32;97547.59;;;16.35;100.00
10470;BME280;5282;47.052;15.458;2023-07-22T05:34:58;97544.66;;;16.37;100.00
10470;BME280;5282;47.052;15.458;2023-07-22T05:37:25;97553.03;;;16.35;100.00
10470;BME280;5282;47.052;15.458;2023-07-22T05:39:54;97555.97;;;16.41;100.00
10470;BME280;5282;47.052;15.458;2023-07-22T05:42:20;97557.22;;;16.45;100.00
10470;BME280;5282;47.052;15.458;2023-07-22T05:44:48;97554.13;;;16.48;100.00
10470;BME280;5282;47.052;15.458;2023-07-22T05:47:15;97555.19;;;16.54;100.00
10470;BME280;5282;47.052;15.458;2023-07-22T05:49:42;97552.25;;;16.55;100.00
10470;BME280;5282;47.052;15.458;2023-07-22T05:52:09;97552.03;;;16.63;100.00
10470;BME280;5282;47.052;15.458;2023-07-22T05:54:36;97548.91;;;16.66;100.00
10470;BME280;5282;47.052;15.458;2023-07-22T05:57:04;97549.56;;;16.69;100.00
10470;BME280;5282;47.052;15.458;2023-07-22T05:59:31;97539.72;;;16.68;100.00
10470;BME280;5282;47.052;15.458;2023-07-22T06:01:58;97546.22;;;16.73;100.00
10470;BME280;5282;47.052;15.458;2023-07-22T06:04:25;97548.72;;;16.75;100.00
10470;BME280;5282;47.052;15.458;2023-07-22T06:06:52;97542.69;;;16.79;100.00
10470;BME280;5282;47.052;15.458;2023-07-22T06:09:19;97534.31;;;16.81;100.00
10470;BME280;5282;47.052;15.458;2023-07-22T06:11:46;97533.44;;;16.74;100.00
10470;BME280;5282;47.052;15.458;2023-07-22T06:14:15;97538.06;;;16.80;100.00
10470;BME280;5282;47.052;15.458;2023-07-22T06:16:41;97537.84;;;16.88;100.00
10470;BME280;5282;47.052;15.458;2023-07-22T06:19:09;97541.84;;;16.92;100.00
10470;BME280;5282;47.052;15.458;2023-07-22T06:21:36;97542.50;;;16.94;100.00
10470;BME280;5282;47.052;15.458;2023-07-22T06:24:03;97556.31;;;17.00;100.00
10470;BME280;5282;47.052;15.458;2023-07-22T06:26:30;97548.38;;;17.05;100.00
10470;BME280;5282;47.052;15.458;2023-07-22T06:28:57;97550.69;;;17.08;100.00
10470;BME280;5282;47.052;15.458;2023-07-22T06:31:25;97551.09;;;17.05;100.00
10470;BME280;5282;47.052;15.458;2023-07-22T06:33:56;97540.63;;;17.08;100.00
10470;BME280;5282;47.052;15.458;2023-07-22T06:36:25;97546.88;;;17.16;100.00
10470;BME280;5282;47.052;15.458;2023-07-22T06:38:52;97559.44;;;17.23;100.00
10470;BME280;5282;47.052;15.458;2023-07-22T06:41:20;97557.13;;;17.27;100.00
10470;BME280;5282;47.052;15.458;2023-07-22T06:43:49;97565.75;;;17.31;100.00
10470;BME280;5282;47.052;15.458;2023-07-22T06:46:18;97568.88;;;17.27;100.00
10470;BME280;5282;47.052;15.458;2023-07-22T06:48:48;97570.75;;;17.34;100.00
10470;BME280;5282;47.052;15.458;2023-07-22T06:51:15;97575.78;;;17.37;100.00
10470;BME280;5282;47.052;15.458;2023-07-22T06:53:42;97576.41;;;17.39;100.00
10470;BME280;5282;47.052;15.458;2023-07-22T06:56:08;97573.28;;;17.35;100.00
10470;BME280;5282;47.052;15.458;2023-07-22T06:58:35;97573.06;;;17.30;100.00
10470;BME280;5282;47.052;15.458;2023-07-22T07:01:02;97584.16;;;17.42;100.00
10470;BME280;5282;47.052;15.458;2023-07-22T07:03:29;97587.28;;;17.52;100.00
10470;BME280;5282;47.052;15.458;2023-07-22T07:05:57;97579.72;;;17.68;100.00
10470;BME280;5282;47.052;15.458;2023-07-22T07:08:24;97581.78;;;17.72;100.00
10470;BME280;5282;47.052;15.458;2023-07-22T07:10:52;97584.72;;;17.84;100.00
10470;BME280;5282;47.052;15.458;2023-07-22T07:13:19;97593.50;;;17.86;100.00
10470;BME280;5282;47.052;15.458;2023-07-22T07:15:47;97596.25;;;18.00;100.00
10470;BME280;5282;47.052;15.458;2023-07-22T07:18:15;97593.69;;;17.92;100.00
10470;BME280;5282;47.052;15.458;2023-07-22T07:20:43;97598.09;;;17.93;100.00
10470;BME280;5282;47.052;15.458;2023-07-22T07:23:12;97593.28;;;17.95;100.00
10470;BME280;5282;47.052;15.458;2023-07-22T07:25:41;97597.22;;;18.12;100.00
10470;BME280;5282;47.052;15.458;2023-07-22T07:28:08;97598.22;;;18.25;100.00
10470;BME280;5282;47.052;15.458;2023-07-22T07:30:36;97604.66;;;18.44;100.00
10470;BME280;5282;47.052;15.458;2023-07-22T07:33:03;97598.13;;;18.52;100.00
10470;BME280;5282;47.052;15.458;2023-07-22T07:35:32;97592.34;;;18.28;100.00
10470;BME280;5282;47.052;15.458;2023-07-22T07:37:59;97608.28;;;18.31;100.00
10470;BME280;5282;47.052;15.458;2023-07-22T07:40:30;97610.75;;;18.39;100.00
10470;BME280;5282;47.052;15.458;2023-07-22T07:42:58;97613.19;;;18.61;100.00
10470;BME280;5282;47.052;15.458;2023-07-22T07:45:25;97608.97;;;18.65;100.00
10470;BME280;5282;47.052;15.458;2023-07-22T07:47:51;97601.88;;;18.96;100.00
10470;BME280;5282;47.052;15.458;2023-07-22T07:50:18;97596.44;;;18.96;100.00
10470;BME280;5282;47.052;15.458;2023-07-22T07:52:45;97606.53;;;18.89;100.00
10470;BME280;5282;47.052;15.458;2023-07-22T07:55:12;97609.16;;;19.09;100.00
10470;BME280;5282;47.052;15.458;2023-07-22T07:57:42;97612.31;;;19.06;100.00
10470;BME280;5282;47.052;15.458;2023-07-22T08:00:10;97610.03;;;19.03;100.00
10470;BME280;5282;47.052;15.458;2023-07-22T08:02:37;97608.78;;;18.99;100.00
10470;BME280;5282;47.052;15.458;2023-07-22T08:05:04;97602.06;;;19.01;100.00
10470;BME280;5282;47.052;15.458;2023-07-22T08:07:31;97593.75;;;19.47;100.00
10470;BME280;5282;47.052;15.458;2023-07-22T08:10:00;97594.06;;;19.57;100.00
10470;BME280;5282;47.052;15.458;2023-07-22T08:12:30;97604.16;;;19.56;100.00
10470;BME280;5282;47.052;15.458;2023-07-22T08:15:00;97603.31;;;19.56;100.00
10470;BME280;5282;47.052;15.458;2023-07-22T08:17:27;97598.78;;;19.50;100.00
10470;BME280;5282;47.052;15.458;2023-07-22T08:19:54;97603.66;;;19.66;100.00
10470;BME280;5282;47.052;15.458;2023-07-22T08:22:20;97599.25;;;20.09;100.00
10470;BME280;5282;47.052;15.458;2023-07-22T08:24:47;97602.13;;;20.33;100.00
10470;BME280;5282;47.052;15.458;2023-07-22T08:27:14;97611.94;;;20.41;100.00
10470;BME280;5282;47.052;15.458;2023-07-22T08:29:41;97604.72;;;20.46;100.00
10470;BME280;5282;47.052;15.458;2023-07-22T08:32:09;97613.28;;;20.50;100.00
10470;BME280;5282;47.052;15.458;2023-07-22T08:34:36;97614.97;;;20.51;100.00
10470;BME280;5282;47.052;15.458;2023-07-22T08:37:03;97609.91;;;20.66;100.00
10470;BME280;5282;47.052;15.458;2023-07-22T08:39:31;97613.50;;;20.67;100.00
10470;BME280;5282;47.052;15.458;2023-07-22T08:42:00;97612.38;;;21.17;100.00
10470;BME280;5282;47.052;15.458;2023-07-22T08:44:32;97614.28;;;21.17;100.00
10470;BME280;5282;47.052;15.458;2023-07-22T08:47:01;97612.03;;;21.25;100.00
10470;BME280;5282;47.052;15.458;2023-07-22T08:49:30;97608.13;;;21.33;100.00
10470;BME280;5282;47.052;15.458;2023-07-22T08:51:57;97605.59;;;21.74;100.00
10470;BME280;5282;47.052;15.458;2023-07-22T08:54:26;97604.13;;;21.83;100.00
10470;BME280;5282;47.052;15.458;2023-07-22T08:56:54;97610.34;;;21.67;100.00
10470;BME280;5282;47.052;15.458;2023-07-22T08:59:21;97606.41;;;21.86;100.00
10470;BME280;5282;47.052;15.458;2023-07-22T09:01:49;97608.78;;;22.07;100.00
10470;BME280;5282;47.052;15.458;2023-07-22T09:04:20;97609.56;;;22.31;100.00
10470;BME280;5282;47.052;15.458;2023-07-22T09:06:48;97613.69;;;22.57;100.00
10470;BME280;5282;47.052;15.458;2023-07-22T09:09:15;97614.09;;;22.49;100.00
10470;BME280;5282;47.052;15.458;2023-07-22T09:11:42;97624.53;;;22.64;100.00
10470;BME280;5282;47.052;15.458;2023-07-22T09:14:09;97624.75;;;22.74;100.00
10470;BME280;5282;47.052;15.458;2023-07-22T09:16:36;97624.94;;;22.85;100.00
10470;BME280;5282;47.052;15.458;2023-07-22T09:19:04;97628.41;;;22.80;100.00
10470;BME280;5282;47.052;15.458;2023-07-22T09:21:33;97627.69;;;22.85;100.00
10470;BME280;5282;47.052;15.458;2023-07-22T09:24:22;97622.16;;;22.96;100.00
10470;BME280;5282;47.052;15.458;2023-07-22T09:26:50;97619.81;;;22.88;100.00
10470;BME280;5282;47.052;15.458;2023-07-22T09:29:17;97628.88;;;22.89;100.00
10470;BME280;5282;47.052;15.458;2023-07-22T09:31:52;97620.25;;;22.68;100.00
10470;BME280;5282;47.052;15.458;2023-07-22T09:34:19;97616.44;;;22.69;100.00
10470;BME280;5282;47.052;15.458;2023-07-22T09:36:51;97620.16;;;22.39;100.00
10470;BME280;5282;47.052;15.458;2023-07-22T09:39:20;97622.28;;;22.61;100.00
10470;BME280;5282;47.052;15.458;2023-07-22T09:41:49;97615.84;;;22.55;100.00
10470;BME280;5282;47.052;15.458;2023-07-22T09:44:18;97614.91;;;22.61;100.00
10470;BME280;5282;47.052;15.458;2023-07-22T09:46:47;97614.94;;;22.38;100.00
10470;BME280;5282;47.052;15.458;2023-07-22T09:49:17;97612.78;;;22.40;100.00
10470;BME280;5282;47.052;15.458;2023-07-22T09:51:44;97611.91;;;22.63;100.00
10470;BME280;5282;47.052;15.458;2023-07-22T09:54:11;97617.81;;;22.43;100.00
10470;BME280;5282;47.052;15.458;2023-07-22T09:56:48;97614.03;;;22.61;100.00
10470;BME280;5282;47.052;15.458;2023-07-22T09:59:17;97607.00;;;22.65;100.00
10470;BME280;5282;47.052;15.458;2023-07-22T10:01:46;97607.78;;;22.77;100.00
10470;BME280;5282;47.052;15.458;2023-07-22T10:04:16;97604.44;;;22.87;100.00
10470;BME280;5282;47.052;15.458;2023-07-22T10:06:43;97612.00;;;22.97;100.00
10470;BME280;5282;47.052;15.458;2023-07-22T10:09:12;97615.84;;;23.25;100.00
10470;BME280;5282;47.052;15.458;2023-07-22T10:11:42;97599.78;;;23.34;100.00
10470;BME280;5282;47.052;15.458;2023-07-22T10:14:11;97594.28;;;23.51;100.00
10470;BME280;5282;47.052;15.458;2023-07-22T10:16:40;97598.59;;;23.81;100.00
10470;BME280;5282;47.052;15.458;2023-07-22T10:19:09;97596.28;;;23.72;100.00
10470;BME280;5282;47.052;15.458;2023-07-22T10:21:37;97597.41;;;23.77;100.00
10470;BME280;5282;47.052;15.458;2023-07-22T10:24:05;97592.19;;;23.58;100.00
10470;BME280;5282;47.052;15.458;2023-07-22T10:26:33;97598.28;;;23.43;100.00
10470;BME280;5282;47.052;15.458;2023-07-22T10:29:01;97596.78;;;23.69;100.00
10470;BME280;5282;47.052;15.458;2023-07-22T10:31:31;97593.25;;;23.91;100.00
10470;BME280;5282;47.052;15.458;2023-07-22T10:33:58;97594.13;;;24.14;100.00
10470;BME280;5282;47.052;15.458;2023-07-22T10:36:29;97590.88;;;24.17;100.00
10470;BME280;5282;47.052;15.458;2023-07-22T10:38:57;97595.16;;;24.08;88.38
10470;BME280;5282;47.052;15.458;2023-07-22T10:41:24;97576.56;;;24.15;100.00
10470;BME280;5282;47.052;15.458;2023-07-22T10:43:54;97581.88;;;24.44;100.00
10470;BME280;5282;47.052;15.458;2023-07-22T10:46:32;97572.50;;;24.67;100.00
10470;BME280;5282;47.052;15.458;2023-07-22T10:49:10;97575.09;;;24.74;100.00
10470;BME280;5282;47.052;15.458;2023-07-22T10:51:38;97578.44;;;24.31;100.00
10470;BME280;5282;47.052;15.458;2023-07-22T10:54:10;97569.13;;;24.38;100.00
10470;BME280;5282;47.052;15.458;2023-07-22T10:56:37;97569.69;;;24.62;100.00
10470;BME280;5282;47.052;15.458;2023-07-22T10:59:04;97569.97;;;24.83;100.00
10470;BME280;5282;47.052;15.458;2023-07-22T11:01:34;97568.44;;;24.70;100.00
10470;BME280;5282;47.052;15.458;2023-07-22T11:04:12;97571.91;;;24.38;100.00
10470;BME280;5282;47.052;15.458;2023-07-22T11:06:54;97576.44;;;24.49;100.00
10470;BME280;5282;47.052;15.458;2023-07-22T11:09:40;97573.59;;;24.88;100.00
10470;BME280;5282;47.052;15.458;2023-07-22T11:12:12;97573.19;;;25.02;100.00
10470;BME280;5282;47.052;15.458;2023-07-22T11:14:46;97573.28;;;24.85;100.00
10470;BME280;5282;47.052;15.458;2023-07-22T11:17:16;97571.75;;;24.72;100.00
10470;BME280;5282;47.052;15.458;2023-07-22T11:19:44;97562.34;;;24.45;96.06
10470;BME280;5282;47.052;15.458;2023-07-22T11:22:11;97561.84;;;24.71;100.00
10470;BME280;5282;47.052;15.458;2023-07-22T11:24:39;97554.91;;;25.23;100.00
10470;BME280;5282;47.052;15.458;2023-07-22T11:27:07;97554.06;;;25.55;97.10
10470;BME280;5282;47.052;15.458;2023-07-22T11:29:34;97550.00;;;25.63;100.00
10470;BME280;5282;47.052;15.458;2023-07-22T11:32:02;97544.56;;;25.73;91.52
10470;BME280;5282;47.052;15.458;2023-07-22T11:34:31;97537.88;;;25.59;91.69
10470;BME280;5282;47.052;15.458;2023-07-22T11:36:57;97544.28;;;25.04;96.20
10470;BME280;5282;47.052;15.458;2023-07-22T11:39:25;97530.34;;;25.16;94.07
10470;BME280;5282;47.052;15.458;2023-07-22T11:41:55;97532.34;;;25.26;92.82
10470;BME280;5282;47.052;15.458;2023-07-22T11:44:26;97527.63;;;25.21;85.36
10470;BME280;5282;47.052;15.458;2023-07-22T11:46:56;97528.00;;;25.03;91.32
10470;BME280;5282;47.052;15.458;2023-07-22T11:49:25;97528.06;;;25.08;100.00
10470;BME280;5282;47.052;15.458;2023-07-22T11:51:56;97516.38;;;24.95;99.03
10470;BME280;5282;47.052;15.458;2023-07-22T11:54:23;97522.28;;;24.77;92.15
10470;BME280;5282;47.052;15.458;2023-07-22T11:56:50;97524.06;;;24.66;100.00
10470;BME280;5282;47.052;15.458;2023-07-22T11:59:17;97525.72;;;24.67;100.00
10470;BME280;5282;47.052;15.458;2023-07-22T12:01:45;97519.91;;;24.63;100.00
10470;BME280;5282;47.052;15.458;2023-07-22T12:04:13;97524.47;;;24.75;100.00
10470;BME280;5282;47.052;15.458;2023-07-22T12:06:40;97518.66;;;24.71;100.00
10470;BME280;5282;47.052;15.458;2023-07-22T12:09:12;97512.09;;;24.77;100.00
10470;BME280;5282;47.052;15.458;2023-07-22T12:11:38;97512.38;;;24.81;100.00
10470;BME280;5282;47.052;15.458;2023-07-22T12:14:09;97521.97;;;24.73;100.00
10470;BME280;5282;47.052;15.458;2023-07-22T12:16:38;97508.34;;;24.89;100.00
10470;BME280;5282;47.052;15.458;2023-07-22T12:19:07;97517.59;;;24.77;100.00
10470;BME280;5282;47.052;15.458;2023-07-22T12:21:34;97514.69;;;24.89;100.00
10470;BME280;5282;47.052;15.458;2023-07-22T12:24:02;97511.97;;;24.94;100.00
10470;BME280;5282;47.052;15.458;2023-07-22T12:26:30;97508.19;;;25.01;100.00
10470;BME280;5282;47.052;15.458;2023-07-22T12:28:57;97520.63;;;24.76;100.00
10470;BME280;5282;47.052;15.458;2023-07-22T12:31:25;97520.31;;;24.72;100.00
10470;BME280;5282;47.052;15.458;2023-07-22T12:33:52;97516.19;;;24.75;100.00
10470;BME280;5282;47.052;15.458;2023-07-22T12:36:18;97517.97;;;24.64;100.00
10470;BME280;5282;47.052;15.458;2023-07-22T12:38:45;97502.50;;;24.58;100.00
10470;BME280;5282;47.052;15.458;2023-07-22T12:41:12;97507.91;;;24.47;100.00
10470;BME280;5282;47.052;15.458;2023-07-22T12:43:41;97502.91;;;24.44;100.00
10470;BME280;5282;47.052;15.458;2023-07-22T12:46:07;97502.13;;;24.49;100.00
10470;BME280;5282;47.052;15.458;2023-07-22T12:48:36;97502.72;;;24.51;100.00
10470;BME280;5282;47.052;15.458;2023-07-22T12:51:04;97498.78;;;24.42;100.00
10470;BME280;5282;47.052;15.458;2023-07-22T12:53:32;97500.97;;;24.45;100.00
10470;BME280;5282;47.052;15.458;2023-07-22T12:55:58;97490.81;;;24.45;100.00